Time;durP1;ratioP1;P1;durP2;ratioP2;P2;SDS_P1;SDS_P2;PMS_P1;PMS_P2;Temp;Humidity;BMP_temperature;BMP_pressure;BME280_temperature;BME280_humidity;BME280_pressure;Samples;Min_cycle;Max_cycle;Signal;HPM_P1;HPM_P2
2021/12/12 00:01:36;;;;;;;5.10;4.55;;;;;;;18.18;48.07;100086.44;4164413;28;20075;-45
2021/12/12 00:03:39;;;;;;;5.40;4.60;;;;;;;18.22;47.90;100070.91;4164490;28;20059;-44
2021/12/12 00:05:54;;;;;;;5.25;4.60;;;;;;;18.22;48.36;100090.28;4163390;28;20473;-44
2021/12/12 00:07:56;;;;;;;5.85;4.70;;;;;;;18.21;48.14;100074.78;4164102;28;20095;-44
2021/12/12 00:10:04;;;;;;;8.40;5.13;;;;;;;18.22;48.21;100087.53;4163479;28;20493;-46
2021/12/12 00:12:11;;;;;;;5.10;4.47;;;;;;;18.22;47.95;100093.06;4163706;28;20120;-45
2021/12/12 00:14:33;;;;;;;4.70;4.20;;;;;;;18.19;47.98;100099.19;4163786;28;20465;-45
2021/12/12 00:16:35;;;;;;;6.18;4.75;;;;;;;18.22;48.07;100108.84;4179595;28;20091;-44
2021/12/12 00:18:37;;;;;;;7.32;4.72;;;;;;;18.18;48.27;100125.19;4163137;28;20440;-44
2021/12/12 00:20:39;;;;;;;5.38;4.88;;;;;;;18.24;48.33;100134.34;4163764;28;20033;-44
2021/12/12 00:22:41;;;;;;;4.72;4.15;;;;;;;18.19;48.09;100132.41;4164423;28;20472;-45
2021/12/12 00:24:42;;;;;;;5.47;4.85;;;;;;;18.19;48.13;100140.72;4164161;28;20497;-45
2021/12/12 00:26:49;;;;;;;5.75;4.65;;;;;;;18.24;48.32;100151.78;4164022;28;20135;-43
2021/12/12 00:28:51;;;;;;;6.15;4.95;;;;;;;18.24;48.02;100154.53;4164081;28;20021;-44
2021/12/12 00:30:59;;;;;;;5.38;4.70;;;;;;;18.25;48.15;100147.06;4163890;28;20534;-46
2021/12/12 00:33:02;;;;;;;6.05;4.93;;;;;;;18.20;48.16;100145.13;4163785;28;20432;-45
2021/12/12 00:35:10;;;;;;;6.35;4.97;;;;;;;18.26;48.39;100149.53;4163383;28;20107;-45
2021/12/12 00:37:12;;;;;;;5.50;4.80;;;;;;;18.27;48.54;100142.88;4163668;28;20469;-45
2021/12/12 00:39:22;;;;;;;5.65;4.72;;;;;;;18.27;48.17;100140.13;4163965;28;20095;-43
2021/12/12 00:41:54;;;;;;;5.50;4.47;;;;;;;18.27;48.30;100147.59;4163463;28;20416;-43
2021/12/12 00:43:56;;;;;;;6.00;4.43;;;;;;;18.29;48.48;100160.06;4163597;28;20076;-46
2021/12/12 00:46:01;;;;;;;5.15;3.97;;;;;;;18.28;48.14;100158.41;4163479;28;20042;-48
2021/12/12 00:48:06;;;;;;;6.45;5.28;;;;;;;18.29;48.49;100154.53;4163239;28;20124;-44
2021/12/12 00:50:26;;;;;;;5.22;4.60;;;;;;;18.24;48.49;100151.78;4163707;28;20168;-44
2021/12/12 00:52:27;;;;;;;5.53;4.60;;;;;;;18.29;48.28;100160.06;4164184;28;20087;-44
2021/12/12 00:54:31;;;;;;;6.07;5.05;;;;;;;18.32;48.40;100180.81;4167065;28;20092;-44
2021/12/12 00:56:33;;;;;;;5.70;4.82;;;;;;;18.33;48.53;100198.28;4166721;28;20127;-46
2021/12/12 00:58:35;;;;;;;5.43;4.85;;;;;;;18.31;48.31;100157.00;4166431;28;20444;-44
2021/12/12 01:00:47;;;;;;;6.10;5.13;;;;;;;18.32;48.35;100163.38;4167096;28;20072;-44
2021/12/12 01:02:48;;;;;;;6.07;4.90;;;;;;;18.34;48.35;100161.16;4166908;28;20480;-46
2021/12/12 01:04:54;;;;;;;5.70;4.65;;;;;;;18.33;48.37;100156.75;4166983;28;20134;-46
2021/12/12 01:07:00;;;;;;;5.10;4.50;;;;;;;18.33;48.62;100159.50;4166602;28;20049;-44
2021/12/12 01:09:05;;;;;;;5.80;4.60;;;;;;;18.33;48.28;100176.13;4165331;28;20037;-45
2021/12/12 01:11:16;;;;;;;6.25;4.82;;;;;;;18.11;48.76;100152.38;4166611;28;20030;-44
2021/12/12 01:13:19;;;;;;;7.43;4.78;;;;;;;18.35;48.67;100219.03;4166419;28;20041;-43
2021/12/12 01:15:30;;;;;;;5.15;4.60;;;;;;;18.33;48.75;100232.34;4164551;28;20415;-44
2021/12/12 01:17:41;;;;;;;5.60;4.40;;;;;;;18.34;48.75;100235.94;4166654;28;20091;-45
2021/12/12 01:19:54;;;;;;;6.03;4.47;;;;;;;18.34;48.44;100228.47;4166623;28;20080;-47
2021/12/12 01:22:07;;;;;;;5.50;4.93;;;;;;;18.35;48.79;100240.38;4166237;28;20102;-46
2021/12/12 01:24:19;;;;;;;5.90;5.00;;;;;;;18.36;48.56;100248.38;4166945;28;20033;-45
2021/12/12 01:26:21;;;;;;;5.05;4.22;;;;;;;18.38;48.54;100257.28;4166122;28;20056;-44
2021/12/12 01:28:30;;;;;;;5.25;4.63;;;;;;;18.34;48.59;100255.34;4166287;28;20087;-47
2021/12/12 01:30:31;;;;;;;4.75;4.20;;;;;;;18.38;48.62;100270.28;4166090;28;20045;-46
2021/12/12 01:32:36;;;;;;;6.07;4.75;;;;;;;18.35;48.55;100273.59;4166257;28;20042;-47
2021/12/12 01:34:39;;;;;;;;;;;;;;;18.36;48.68;100275.25;4166763;28;20037;-45
2021/12/12 01:39:05;;;;;;;5.10;4.45;;;;;;;18.43;48.22;100253.66;4168372;28;20448;-46
2021/12/12 01:41:06;;;;;;;5.45;4.43;;;;;;;18.43;48.39;100245.34;4166706;28;20030;-44
2021/12/12 01:43:32;;;;;;;5.22;4.40;;;;;;;18.39;48.48;100238.69;4166162;28;20046;-46
2021/12/12 01:45:40;;;;;;;5.38;4.20;;;;;;;18.43;48.73;100242.56;4165777;28;20064;-47
2021/12/12 01:47:55;;;;;;;5.68;4.45;;;;;;;18.40;48.37;100229.28;4165552;28;20469;-48
2021/12/12 01:50:01;;;;;;;5.10;4.53;;;;;;;18.42;48.27;100246.47;4166422;28;20033;-43
2021/12/12 01:52:09;;;;;;;5.07;4.00;;;;;;;18.41;48.58;100250.31;4165861;28;20041;-44
2021/12/12 01:54:18;;;;;;;4.97;4.40;;;;;;;18.37;48.37;100249.22;4164217;28;20508;-43
2021/12/12 01:56:34;;;;;;;5.13;4.47;;;;;;;18.41;48.31;100244.78;4166381;28;20033;-44
2021/12/12 01:58:38;;;;;;;5.35;4.55;;;;;;;18.21;48.72;100202.19;4165525;28;20037;-43
2021/12/12 02:00:48;;;;;;;5.32;4.57;;;;;;;18.42;48.47;100208.50;4165726;28;20041;-45
2021/12/12 02:02:50;;;;;;;6.13;4.43;;;;;;;18.42;48.54;100191.06;4166328;28;20064;-46
2021/12/12 02:04:59;;;;;;;4.93;4.18;;;;;;;18.43;48.54;100184.41;4165224;28;20033;-48
2021/12/12 02:07:06;;;;;;;6.32;4.60;;;;;;;18.43;48.54;100181.63;4165798;28;20041;-45
2021/12/12 02:09:07;;;;;;;5.57;4.10;;;;;;;18.43;48.53;100168.59;4165371;28;20103;-46
2021/12/12 02:11:16;;;;;;;5.28;4.63;;;;;;;18.45;48.53;100179.38;4165059;28;20511;-47
2021/12/12 02:13:20;;;;;;;4.68;4.18;;;;;;;18.45;48.17;100190.47;4166498;28;20419;-45
2021/12/12 02:15:21;;;;;;;4.93;3.95;;;;;;;18.46;48.30;100203.22;4166181;28;20111;-43
2021/12/12 02:17:38;;;;;;;5.75;4.40;;;;;;;18.44;48.22;100205.44;4180625;28;20079;-43
2021/12/12 02:35:06;;;;;;;5.35;4.47;;;;;;;18.45;48.18;100230.09;4165996;28;20025;-44
2021/12/12 02:36:19;;;;;;;5.05;3.92;;;;;;;18.48;48.14;100262.78;4165991;28;20106;-44
2021/12/12 02:38:29;;;;;;;4.75;4.22;;;;;;;18.45;48.63;100290.22;4164869;28;20041;-43
2021/12/12 02:40:39;;;;;;;5.05;4.47;;;;;;;18.50;48.20;100317.91;4165252;28;20063;-46
2021/12/12 02:42:44;;;;;;;4.68;3.78;;;;;;;18.50;48.70;100371.38;4165351;28;20441;-44
2021/12/12 02:44:46;;;;;;;5.07;3.95;;;;;;;18.48;48.27;100365.28;4164274;28;20103;-46
2021/12/12 02:46:49;;;;;;;4.55;3.75;;;;;;;18.49;48.65;100358.63;4179703;28;20036;-44
2021/12/12 02:48:53;;;;;;;4.93;3.90;;;;;;;18.50;48.49;100388.00;4165207;28;20041;-44
2021/12/12 02:50:56;;;;;;;4.38;3.92;;;;;;;18.51;48.78;100427.63;4165058;28;20099;-44
2021/12/12 02:53:07;;;;;;;4.72;3.80;;;;;;;18.50;48.57;100453.66;4165066;28;20430;-45
2021/12/12 02:55:17;;;;;;;5.18;3.80;;;;;;;18.50;48.86;100457.25;4165226;28;20091;-45
2021/12/12 02:57:19;;;;;;;4.90;3.78;;;;;;;18.52;48.61;100463.38;4164401;28;20099;-46
2021/12/12 02:59:24;;;;;;;5.07;3.88;;;;;;;18.52;48.35;100449.50;4165706;28;20029;-45
2021/12/12 03:01:43;;;;;;;4.55;3.58;;;;;;;18.53;48.29;100392.16;4164970;28;20041;-44
2021/12/12 03:03:46;;;;;;;4.30;3.67;;;;;;;18.55;48.18;100414.88;4164852;28;20045;-44
2021/12/12 03:05:48;;;;;;;4.25;3.85;;;;;;;18.58;48.19;100450.34;4164744;28;20072;-44
2021/12/12 03:07:50;;;;;;;5.13;3.75;;;;;;;18.51;48.34;100411.00;4164577;28;20067;-43
2021/12/12 03:09:56;;;;;;;4.32;3.53;;;;;;;18.59;48.55;100459.47;4164611;28;20041;-47
2021/12/12 03:12:09;;;;;;;4.25;3.80;;;;;;;18.58;48.17;100478.06;4163206;28;20042;-44
2021/12/12 03:14:11;;;;;;;5.15;3.92;;;;;;;18.60;48.31;100442.59;4164340;28;20041;-45
2021/12/12 03:16:13;;;;;;;5.88;3.33;;;;;;;18.61;47.99;100466.44;4164795;28;20041;-45
2021/12/12 03:18:29;;;;;;;4.38;3.55;;;;;;;18.59;48.29;100391.03;4164855;28;20053;-43
2021/12/12 03:20:35;;;;;;;4.35;3.50;;;;;;;18.59;47.90;100410.44;4165338;28;20041;-44
2021/12/12 03:22:37;;;;;;;6.25;3.88;;;;;;;18.62;48.22;100458.94;4179616;28;20033;-45
2021/12/12 03:24:39;;;;;;;5.13;3.58;;;;;;;18.65;48.02;100456.47;4181782;28;20460;-45
2021/12/12 03:26:45;;;;;;;3.88;3.30;;;;;;;18.62;47.76;100437.59;4181148;28;20106;-45
2021/12/12 03:28:52;;;;;;;4.57;3.53;;;;;;;18.63;47.91;100433.72;4180895;28;20052;-46
2021/12/12 03:30:56;;;;;;;3.45;3.15;;;;;;;18.65;48.04;100439.81;4181585;28;20032;-45
2021/12/12 03:32:58;;;;;;;4.60;3.67;;;;;;;18.66;48.03;100419.31;4180702;28;20056;-46
2021/12/12 03:35:00;;;;;;;4.50;3.40;;;;;;;18.67;47.68;100412.66;4180627;28;20041;-45
2021/12/12 03:37:05;;;;;;;3.97;3.30;;;;;;;18.69;47.55;100415.16;4177678;28;20114;-44
2021/12/12 03:39:28;;;;;;;4.43;3.58;;;;;;;18.66;47.76;100447.03;4164307;28;20041;-45
2021/12/12 03:41:33;;;;;;;5.03;3.63;;;;;;;18.69;47.52;100490.84;4164118;28;20103;-45
2021/12/12 03:43:36;;;;;;;4.50;3.93;;;;;;;18.71;47.78;100551.53;4164190;28;20041;-45
2021/12/12 03:45:45;;;;;;;3.28;2.75;;;;;;;18.71;47.73;100532.16;4164719;28;20341;-44
2021/12/12 03:48:14;;;;;;;3.55;2.92;;;;;;;18.69;47.77;100513.03;4163792;28;20037;-51
2021/12/12 03:50:23;;;;;;;3.97;3.58;;;;;;;18.70;47.78;100581.22;4159529;28;20038;-46
2021/12/12 03:52:26;;;;;;;4.70;3.42;;;;;;;18.72;47.72;100542.94;4163806;28;20106;-43
2021/12/12 03:54:27;;;;;;;3.25;2.95;;;;;;;18.75;47.49;100549.88;4163530;28;20103;-45
2021/12/12 03:56:29;;;;;;;4.35;3.80;;;;;;;18.75;47.25;100572.91;4164129;28;20100;-46
2021/12/12 03:58:32;;;;;;;4.00;3.17;;;;;;;18.74;47.50;100565.69;4163470;28;20147;-44
2021/12/12 04:00:42;;;;;;;3.90;2.97;;;;;;;18.74;47.17;100610.03;4164025;28;20110;-44
2021/12/12 04:02:43;;;;;;;4.57;3.42;;;;;;;18.75;47.18;100570.13;4164208;28;20103;-46
2021/12/12 04:04:47;;;;;;;3.80;3.30;;;;;;;18.75;47.24;100570.13;4163760;28;20471;-48
2021/12/12 04:06:50;;;;;;;4.97;3.30;;;;;;;18.76;47.30;100521.88;4159204;28;20041;-43
2021/12/12 04:08:52;;;;;;;3.80;3.38;;;;;;;18.76;47.12;100546.84;4164290;28;20115;-43
2021/12/12 04:10:54;;;;;;;4.60;3.22;;;;;;;18.74;47.34;100576.78;4164453;28;20370;-44
2021/12/12 04:12:57;;;;;;;4.35;3.53;;;;;;;18.78;47.14;100601.97;4163385;28;20050;-46
2021/12/12 04:14:59;;;;;;;3.60;3.25;;;;;;;18.77;47.29;100623.34;4163915;28;20079;-47
2021/12/12 04:17:05;;;;;;;3.30;2.80;;;;;;;18.77;47.22;100658.53;4163783;28;20100;-44
2021/12/12 04:19:08;;;;;;;4.63;3.58;;;;;;;18.78;46.91;100663.84;4163318;28;20059;-45
2021/12/12 04:21:09;;;;;;;3.60;2.97;;;;;;;18.79;47.05;100679.34;4164261;28;20473;-46
2021/12/12 04:23:19;;;;;;;3.83;3.40;;;;;;;18.79;46.96;100689.59;4164306;28;20428;-44
2021/12/12 04:25:22;;;;;;;4.47;3.42;;;;;;;18.79;47.10;100715.38;4164321;28;20432;-45
2021/12/12 04:27:24;;;;;;;4.63;2.95;;;;;;;18.78;47.00;100755.31;4161324;28;20220;-45
2021/12/12 04:29:33;;;;;;;3.42;3.03;;;;;;;18.76;47.07;100763.06;4163601;28;20096;-45
2021/12/12 04:31:38;;;;;;;3.65;3.08;;;;;;;18.81;47.13;100769.72;4163458;28;20443;-46
2021/12/12 04:33:39;;;;;;;5.03;3.70;;;;;;;18.71;46.95;100760.25;4164174;28;20107;-44
2021/12/12 04:35:41;;;;;;;4.65;3.13;;;;;;;18.81;46.98;100753.91;4163658;28;20037;-49
2021/12/12 04:37:44;;;;;;;3.63;2.75;;;;;;;18.81;47.10;100742.00;4178502;28;20075;-43
2021/12/12 04:39:49;;;;;;;3.95;3.10;;;;;;;18.81;47.02;100776.09;4164230;28;20131;-45
2021/12/12 04:41:58;;;;;;;4.22;3.30;;;;;;;18.81;46.71;100836.25;4163801;28;20451;-46
2021/12/12 04:43:59;;;;;;;3.97;3.00;;;;;;;18.82;46.80;100844.28;4164315;28;20033;-46
2021/12/12 04:46:10;;;;;;;3.13;2.83;;;;;;;18.82;46.78;100851.78;4163969;28;20534;-44
2021/12/12 04:50:49;;;;;;;3.60;2.97;;;;;;;18.79;47.08;100862.31;4166454;28;20396;-45
2021/12/12 04:52:59;;;;;;;3.78;2.80;;;;;;;18.82;46.78;100893.38;4163679;28;20100;-44
2021/12/12 04:55:09;;;;;;;3.45;2.83;;;;;;;18.82;46.75;100896.13;4164207;28;20464;-46
2021/12/12 04:57:24;;;;;;;3.45;2.75;;;;;;;18.79;47.09;100873.41;4163680;28;20053;-47
2021/12/12 04:59:40;;;;;;;3.97;3.45;;;;;;;18.81;47.08;100897.25;4163512;28;20084;-46
2021/12/12 05:01:55;;;;;;;3.40;2.72;;;;;;;18.78;47.03;100905.00;4164259;28;20029;-44
2021/12/12 05:04:20;;;;;;;3.38;2.70;;;;;;;18.79;46.54;100901.13;4163132;28;20038;-45
2021/12/12 05:06:30;;;;;;;3.97;3.03;;;;;;;18.83;47.02;100906.13;4163256;28;20038;-49
2021/12/12 05:08:41;;;;;;;2.80;2.58;;;;;;;18.83;46.82;100898.66;4162779;28;20049;-43
2021/12/12 05:11:08;;;;;;;3.10;2.67;;;;;;;18.81;46.96;100902.78;4163131;28;20388;-45
2021/12/12 05:13:38;;;;;;;3.08;2.72;;;;;;;18.79;46.78;100895.59;4156544;28;20038;-44
2021/12/12 05:15:58;;;;;;;3.25;2.88;;;;;;;18.83;46.53;100917.22;4161764;28;20103;-45
2021/12/12 05:18:09;;;;;;;3.85;2.90;;;;;;;18.84;46.45;100952.16;4163571;28;20049;-45
2021/12/12 05:20:14;;;;;;;3.78;2.60;;;;;;;18.83;46.72;100972.66;4163626;28;20473;-46
2021/12/12 05:22:19;;;;;;;3.72;3.33;;;;;;;18.84;46.64;100963.25;4163440;28;20103;-44
2021/12/12 05:24:25;;;;;;;3.47;2.63;;;;;;;18.83;46.59;100953.25;4164246;28;20029;-44
2021/12/12 05:26:29;;;;;;;;;;;;;;;18.82;46.44;100965.44;4164610;28;20034;-44
2021/12/12 05:28:36;;;;;;;4.00;2.92;;;;;;;18.88;46.34;100965.25;4163416;28;19970;-46
2021/12/12 05:30:38;;;;;;;4.43;2.42;;;;;;;18.87;46.53;100973.81;4163316;28;20115;-46
2021/12/12 05:32:41;;;;;;;2.80;2.35;;;;;;;18.86;46.49;101005.41;4164192;28;20045;-49
2021/12/12 05:34:49;;;;;;;3.28;2.80;;;;;;;18.78;46.74;100992.88;4162588;28;20037;-47
2021/12/12 05:36:53;;;;;;;3.05;2.75;;;;;;;18.76;46.72;100990.38;4163064;28;20695;-46
2021/12/12 05:38:57;;;;;;;2.85;2.30;;;;;;;18.81;46.49;101013.69;4164242;28;20083;-46
2021/12/12 05:40:59;;;;;;;3.05;2.53;;;;;;;18.82;46.56;101038.38;4166436;28;20458;-44
2021/12/12 05:43:03;;;;;;;3.25;2.70;;;;;;;18.83;46.61;101050.28;4167133;28;20342;-43
2021/12/12 05:45:08;;;;;;;3.70;3.10;;;;;;;18.78;46.29;101053.84;4166300;28;20045;-45
2021/12/12 05:47:11;;;;;;;3.03;2.50;;;;;;;18.83;46.54;101072.47;4166425;28;20133;-45
2021/12/12 05:49:13;;;;;;;3.42;2.75;;;;;;;18.82;46.45;101065.25;4166523;28;20140;-44
2021/12/12 05:51:15;;;;;;;3.08;2.78;;;;;;;18.74;46.60;101063.81;4166403;28;20041;-44
2021/12/12 05:53:16;;;;;;;3.70;3.08;;;;;;;18.81;46.44;101080.22;4166175;28;20476;-44
2021/12/12 05:55:18;;;;;;;3.22;2.92;;;;;;;18.81;46.71;101069.13;4166915;28;20562;-46
2021/12/12 05:57:25;;;;;;;3.25;2.70;;;;;;;18.75;46.27;101066.31;4165804;28;20107;-44
2021/12/12 05:59:28;;;;;;;2.50;2.30;;;;;;;18.82;46.30;101065.25;4166784;28;20041;-45
2021/12/12 06:01:30;;;;;;;3.10;2.40;;;;;;;18.80;46.44;101076.63;4166115;28;20041;-46
2021/12/12 06:03:37;;;;;;;3.03;2.70;;;;;;;18.79;46.34;101089.66;4165838;28;20041;-48
2021/12/12 06:05:39;;;;;;;2.70;2.50;;;;;;;18.81;46.58;101088.53;4165825;28;20521;-44
2021/12/12 06:07:41;;;;;;;3.13;2.35;;;;;;;18.81;46.46;101107.94;4165737;28;20107;-47
2021/12/12 06:09:45;;;;;;;2.72;2.28;;;;;;;18.81;46.36;101092.16;4166414;28;20041;-43
2021/12/12 06:11:51;;;;;;;2.97;2.28;;;;;;;18.59;46.29;101083.84;4166116;28;20412;-45
2021/12/12 06:13:54;;;;;;;2.45;2.25;;;;;;;18.79;46.50;101117.38;4166190;28;20087;-44
2021/12/12 06:15:57;;;;;;;2.53;2.20;;;;;;;18.79;46.22;101128.47;4165973;28;20045;-43
2021/12/12 06:17:59;;;;;;;3.67;2.60;;;;;;;18.79;46.18;101111.84;4166188;28;20045;-43
2021/12/12 06:20:08;;;;;;;2.85;2.22;;;;;;;18.81;46.14;101125.41;4165586;28;20099;-46
2021/12/12 06:22:10;;;;;;;2.75;2.45;;;;;;;18.80;46.50;101109.88;4165754;28;20096;-47
2021/12/12 06:24:14;;;;;;;2.72;2.28;;;;;;;18.82;46.36;101140.13;4165652;28;20088;-44
2021/12/12 06:26:18;;;;;;;2.97;2.53;;;;;;;18.77;46.08;101125.09;4166274;28;20045;-48
2021/12/12 06:28:34;;;;;;;2.33;2.10;;;;;;;18.78;46.23;101137.03;4165429;28;20083;-48
2021/12/12 06:30:36;;;;;;;2.35;2.10;;;;;;;18.81;46.50;101163.41;4165651;28;20059;-47
2021/12/12 06:32:37;;;;;;;3.58;2.50;;;;;;;18.82;46.47;101182.53;4165857;28;20042;-45
2021/12/12 06:34:39;;;;;;;2.58;2.25;;;;;;;18.81;45.80;101168.94;4166171;28;20045;-45
2021/12/12 06:36:42;;;;;;;2.55;2.30;;;;;;;18.82;46.21;101178.94;4166108;28;20033;-45
2021/12/12 06:38:47;;;;;;;3.13;2.45;;;;;;;18.81;46.32;101171.72;4165288;28;20649;-45
2021/12/12 06:40:50;;;;;;;4.07;2.20;;;;;;;18.79;46.42;101167.28;4165609;28;20045;-44
2021/12/12 06:42:54;;;;;;;2.22;2.00;;;;;;;18.79;46.34;101175.59;4166235;28;20021;-51
2021/12/12 06:44:55;;;;;;;2.83;2.35;;;;;;;18.79;46.47;101195.00;4165657;28;20096;-42
2021/12/12 06:46:59;;;;;;;2.42;2.15;;;;;;;18.80;46.05;101198.59;4165707;28;20049;-45
2021/12/12 06:49:02;;;;;;;3.30;2.20;;;;;;;18.81;46.08;101210.53;4166073;28;20088;-46
2021/12/12 06:51:04;;;;;;;2.67;2.40;;;;;;;18.80;45.99;101201.38;4165309;28;20049;-43
2021/12/12 06:53:07;;;;;;;2.42;2.17;;;;;;;18.79;45.86;101206.09;4165596;28;20095;-46
2021/12/12 06:55:10;;;;;;;2.25;1.92;;;;;;;18.78;46.31;101209.09;4165603;28;20038;-44
2021/12/12 06:57:15;;;;;;;2.33;2.13;;;;;;;18.78;46.32;101225.75;4165681;28;20445;-45
2021/12/12 06:59:16;;;;;;;2.77;2.10;;;;;;;18.78;45.91;101240.47;4165312;28;20518;-46
2021/12/12 07:01:24;;;;;;;2.60;2.30;;;;;;;18.77;45.76;101236.00;4166024;28;20722;-44
2021/12/12 07:03:26;;;;;;;2.55;2.35;;;;;;;18.72;46.07;101216.53;4165294;28;20443;-44
2021/12/12 07:05:30;;;;;;;3.08;2.13;;;;;;;18.76;46.04;101234.31;4165279;28;20033;-46
2021/12/12 07:07:32;;;;;;;3.17;2.63;;;;;;;18.78;45.96;101237.69;4164824;28;20472;-48
2021/12/12 07:09:35;;;;;;;2.78;2.03;;;;;;;18.71;45.90;101214.03;4164846;28;20439;-44
2021/12/12 07:11:39;;;;;;;2.50;2.03;;;;;;;18.77;46.19;101219.34;4165301;28;20091;-44
2021/12/12 07:13:41;;;;;;;2.28;1.98;;;;;;;18.76;46.05;101233.50;4165577;28;20099;-46
2021/12/12 07:15:49;;;;;;;2.20;1.70;;;;;;;18.75;45.89;101237.38;4165248;28;20033;-45
2021/12/12 07:17:56;;;;;;;2.05;1.85;;;;;;;18.76;46.15;101255.66;4164800;28;20496;-45
2021/12/12 07:19:58;;;;;;;2.58;2.30;;;;;;;18.76;46.11;101255.66;4165406;28;20041;-44
2021/12/12 07:22:00;;;;;;;2.20;2.00;;;;;;;18.76;46.28;101261.22;4165457;28;20033;-47
2021/12/12 07:24:04;;;;;;;2.88;2.55;;;;;;;18.75;45.78;101267.88;4164601;28;20535;-45
2021/12/12 07:26:09;;;;;;;2.42;2.13;;;;;;;18.72;46.17;101271.97;4164590;28;20535;-45
2021/12/12 07:28:12;;;;;;;2.70;1.95;;;;;;;18.67;46.14;101249.72;4164485;28;20103;-46
2021/12/12 07:30:13;;;;;;;2.60;1.85;;;;;;;18.75;46.08;101257.63;4165448;28;20117;-45
2021/12/12 07:32:15;;;;;;;2.10;1.90;;;;;;;18.75;46.13;101260.38;4179865;28;20033;-46
2021/12/12 07:34:18;;;;;;;1.92;1.70;;;;;;;18.74;46.20;101269.81;4164674;28;20045;-47
2021/12/12 07:36:21;;;;;;;3.88;1.80;;;;;;;18.75;45.79;101274.25;4164936;28;20096;-47
2021/12/12 07:38:22;;;;;;;3.33;1.98;;;;;;;18.74;46.18;101288.38;4163699;28;20045;-46
2021/12/12 07:40:24;;;;;;;2.25;1.70;;;;;;;18.72;46.15;101276.69;4165035;28;20056;-43
2021/12/12 07:42:26;;;;;;;2.50;2.00;;;;;;;18.74;45.76;101280.91;4164826;28;20041;-44
2021/12/12 07:44:31;;;;;;;2.05;1.85;;;;;;;18.72;45.53;101277.53;4163982;28;20104;-49
2021/12/12 07:46:34;;;;;;;1.67;1.58;;;;;;;18.72;45.55;101280.28;4164380;28;20087;-47
2021/12/12 07:48:36;;;;;;;2.03;1.70;;;;;;;18.73;45.52;101295.00;4166629;28;20476;-46
2021/12/12 07:50:43;;;;;;;2.08;1.60;;;;;;;18.37;45.87;101241.84;4177096;28;20062;-46
2021/12/12 07:52:46;;;;;;;2.75;1.80;;;;;;;18.73;45.92;101303.31;4162968;28;20037;-45
2021/12/12 07:54:49;;;;;;;2.42;1.85;;;;;;;18.71;45.87;101320.22;4164394;28;20091;-44
2021/12/12 07:56:51;;;;;;;1.77;1.52;;;;;;;18.72;45.81;101316.34;4164559;28;20080;-45
2021/12/12 07:58:53;;;;;;;1.92;1.83;;;;;;;18.71;46.06;101322.16;4164264;28;20045;-43
2021/12/12 08:00:57;;;;;;;2.45;1.70;;;;;;;18.70;45.74;101324.09;4163594;28;20048;-47
2021/12/12 08:02:59;;;;;;;2.38;1.98;;;;;;;18.69;45.74;101322.41;4163978;28;20469;-45
2021/12/12 08:05:02;;;;;;;2.13;1.90;;;;;;;18.71;45.92;101320.22;4164279;28;20107;-49
2021/12/12 08:07:12;;;;;;;1.60;1.50;;;;;;;18.70;46.08;101321.31;4164559;28;20029;-45
2021/12/12 08:09:14;;;;;;;2.08;1.88;;;;;;;18.70;46.04;101314.94;4163548;28;20481;-45
2021/12/12 08:11:18;;;;;;;2.10;1.50;;;;;;;18.71;45.65;101325.75;4164442;28;20041;-46
2021/12/12 08:13:20;;;;;;;2.25;1.83;;;;;;;18.70;46.05;101332.41;4164487;28;20045;-44
2021/12/12 08:15:22;;;;;;;1.33;1.23;;;;;;;18.70;45.91;101350.97;4164107;28;20109;-46
2021/12/12 08:17:24;;;;;;;1.90;1.70;;;;;;;18.69;45.75;101339.03;4162820;28;20053;-44
2021/12/12 08:19:26;;;;;;;1.85;1.70;;;;;;;18.70;46.20;101339.88;4163912;28;20042;-46
2021/12/12 08:21:33;;;;;;;1.67;1.58;;;;;;;18.69;45.73;101333.50;4164244;28;20041;-46
2021/12/12 08:23:36;;;;;;;2.40;1.98;;;;;;;18.70;45.80;101343.50;4164380;28;20053;-43
2021/12/12 08:25:39;;;;;;;1.48;1.38;;;;;;;18.66;45.84;101339.50;4163488;28;20045;-47
2021/12/12 08:27:41;;;;;;;1.98;1.60;;;;;;;18.67;45.75;101334.81;4163538;28;20045;-44
2021/12/12 08:29:43;;;;;;;1.92;1.70;;;;;;;18.69;45.96;101344.59;4164234;28;20111;-45
2021/12/12 08:31:46;;;;;;;2.88;1.73;;;;;;;18.69;45.71;101339.03;4163384;28;20047;-46
2021/12/12 08:33:47;;;;;;;2.10;1.90;;;;;;;18.65;46.09;101331.47;4164217;28;20041;-47
2021/12/12 08:35:49;;;;;;;1.92;1.83;;;;;;;18.68;45.98;101340.09;4164354;28;20055;-46
2021/12/12 08:37:51;;;;;;;2.05;1.65;;;;;;;18.65;45.79;101342.56;4163013;28;20095;-47
2021/12/12 08:39:54;;;;;;;2.28;1.52;;;;;;;18.67;45.95;101340.34;4164273;28;20025;-50
2021/12/12 08:41:58;;;;;;;1.92;1.70;;;;;;;18.69;45.97;101344.59;4163967;28;20091;-47
2021/12/12 08:44:00;;;;;;;2.33;1.30;;;;;;;18.68;45.67;101342.84;4163582;28;20045;-47
2021/12/12 08:46:10;;;;;;;1.60;1.50;;;;;;;18.62;45.88;101338.34;4163676;28;20653;-47
2021/12/12 08:48:17;;;;;;;1.65;1.55;;;;;;;18.69;45.72;101368.66;4163956;28;20030;-45
2021/12/12 08:50:25;;;;;;;2.30;1.50;;;;;;;18.67;46.01;101384.72;4164106;28;20076;-50
2021/12/12 08:52:36;;;;;;;1.40;1.30;;;;;;;18.69;45.65;101393.63;4163616;28;20419;-44
2021/12/12 08:54:43;;;;;;;1.60;1.25;;;;;;;18.69;45.97;101404.72;4163341;28;20049;-45
2021/12/12 08:56:48;;;;;;;1.85;1.50;;;;;;;18.67;45.43;101417.97;4163384;28;20076;-43
2021/12/12 08:58:50;;;;;;;1.83;1.67;;;;;;;18.67;45.90;101418.81;4163581;28;20041;-47
2021/12/12 09:01:10;;;;;;;1.70;1.50;;;;;;;18.61;45.60;101405.13;4164101;28;20033;-50
2021/12/12 09:03:20;;;;;;;1.75;1.40;;;;;;;18.67;45.52;101440.97;4163984;28;20461;-45
2021/12/12 09:05:28;;;;;;;1.75;1.35;;;;;;;18.66;45.47;101455.94;4164082;28;20101;-47
2021/12/12 09:07:39;;;;;;;1.83;1.70;;;;;;;18.65;45.62;101453.44;4163677;28;20033;-47
2021/12/12 09:09:49;;;;;;;1.63;1.40;;;;;;;18.64;45.52;101458.09;4172019;28;20045;-46
2021/12/12 09:11:59;;;;;;;1.50;1.40;;;;;;;18.66;45.61;101450.41;4178667;28;20040;-45
2021/12/12 09:14:08;;;;;;;2.10;1.40;;;;;;;18.66;45.77;101453.16;4181472;28;20083;-47
2021/12/12 09:16:26;;;;;;;1.70;1.50;;;;;;;18.66;45.90;101444.00;4182851;28;20446;-43
2021/12/12 09:18:42;;;;;;;1.60;1.40;;;;;;;18.62;45.81;101442.84;4183403;28;20086;-46
2021/12/12 09:20:52;;;;;;;1.45;1.30;;;;;;;18.65;45.70;101454.28;4183299;28;20091;-47
2021/12/12 09:23:01;;;;;;;1.77;1.02;;;;;;;18.65;45.74;101448.72;4183631;28;20024;-46
2021/12/12 09:25:19;;;;;;;1.60;1.02;;;;;;;18.66;45.78;101461.47;4183647;28;20033;-48
2021/12/12 09:27:30;;;;;;;1.30;1.20;;;;;;;18.65;45.71;101458.97;4182911;28;20518;-44
2021/12/12 09:29:45;;;;;;;1.30;1.20;;;;;;;18.62;45.89;101454.75;4183074;28;20094;-47
2021/12/12 09:32:03;;;;;;;1.05;1.00;;;;;;;18.64;45.61;101465.59;4182804;28;20032;-49
2021/12/12 09:34:33;;;;;;;1.10;1.00;;;;;;;18.63;45.38;101456.44;4181052;28;20037;-44
2021/12/12 09:36:46;;;;;;;1.20;1.10;;;;;;;18.64;45.79;101463.66;4182164;28;20040;-48
2021/12/12 09:38:52;;;;;;;1.20;1.10;;;;;;;18.65;45.56;101459.81;4182392;28;20538;-46
2021/12/12 09:41:17;;;;;;;1.08;1.02;;;;;;;18.63;45.24;101461.97;4183458;28;20140;-47
2021/12/12 09:43:52;;;;;;;1.42;1.33;;;;;;;18.60;45.50;101468.06;4182957;28;20455;-46
2021/12/12 09:45:59;;;;;;;1.63;1.20;;;;;;;18.61;45.64;101475.28;4182805;28;20443;-47
2021/12/12 09:53:18;;;;;;;1.88;1.30;;;;;;;18.62;45.43;101503.81;4184280;28;20828;-47
2021/12/12 09:55:49;;;;;;;1.00;0.95;;;;;;;18.61;45.49;101522.38;4182596;28;20107;-48
2021/12/12 09:58:14;;;;;;;1.20;1.10;;;;;;;18.61;45.24;101521.56;4182826;28;20435;-50
2021/12/12 10:00:32;;;;;;;1.05;0.98;;;;;;;18.59;45.35;101527.31;4182407;28;20037;-45
2021/12/12 10:02:39;;;;;;;1.00;0.90;;;;;;;18.59;45.29;101527.31;4182151;28;20049;-47
2021/12/12 10:04:58;;;;;;;1.52;1.40;;;;;;;18.57;45.45;101543.38;4182955;28;20113;-47
2021/12/12 10:07:41;;;;;;;2.22;1.10;;;;;;;18.54;45.81;101546.66;4182248;28;20041;-43
2021/12/12 10:10:00;;;;;;;1.30;1.17;;;;;;;18.56;45.36;101536.16;4131275;28;20490;-43
2021/12/12 10:12:12;;;;;;;1.10;1.00;;;;;;;18.58;45.19;101553.38;4168668;28;20476;-43
2021/12/12 10:14:35;;;;;;;0.90;0.90;;;;;;;18.57;45.36;101561.94;4165583;28;20088;-44
2021/12/12 10:16:46;;;;;;;1.13;1.02;;;;;;;18.57;45.53;101562.78;4166006;28;20519;-48